sensor_id;sensor_type;location;lat;lon;timestamp;temperature;humidity
506;DHT22;551;48.524;9.056;2023-04-04T00:01:01;2.50;1.00
506;DHT22;551;48.524;9.056;2023-04-04T00:03:26;2.50;1.00
506;DHT22;551;48.524;9.056;2023-04-04T00:05:52;2.50;1.00
506;DHT22;551;48.524;9.056;2023-04-04T00:08:17;2.40;1.00
506;DHT22;551;48.524;9.056;2023-04-04T00:10:43;2.40;1.00
506;DHT22;551;48.524;9.056;2023-04-04T00:13:10;2.40;1.00
506;DHT22;551;48.524;9.056;2023-04-04T00:15:36;2.40;1.00
506;DHT22;551;48.524;9.056;2023-04-04T00:18:02;2.40;1.00
506;DHT22;551;48.524;9.056;2023-04-04T00:20:28;2.40;1.00
506;DHT22;551;48.524;9.056;2023-04-04T00:22:55;2.30;1.00
506;DHT22;551;48.524;9.056;2023-04-04T00:25:20;2.40;1.00
506;DHT22;551;48.524;9.056;2023-04-04T00:27:47;2.30;1.00
506;DHT22;551;48.524;9.056;2023-04-04T00:30:12;2.20;1.00
506;DHT22;551;48.524;9.056;2023-04-04T00:32:38;2.10;1.00
506;DHT22;551;48.524;9.056;2023-04-04T00:35:04;2.20;1.00
506;DHT22;551;48.524;9.056;2023-04-04T00:37:29;2.10;1.00
506;DHT22;551;48.524;9.056;2023-04-04T00:39:55;2.10;1.00
506;DHT22;551;48.524;9.056;2023-04-04T00:42:21;2.10;1.00
506;DHT22;551;48.524;9.056;2023-04-04T00:44:46;2.00;1.00
506;DHT22;551;48.524;9.056;2023-04-04T00:47:12;2.00;1.00
506;DHT22;551;48.524;9.056;2023-04-04T00:49:38;1.90;1.00
506;DHT22;551;48.524;9.056;2023-04-04T00:54:31;1.90;1.00
506;DHT22;551;48.524;9.056;2023-04-04T00:56:57;1.80;1.00
506;DHT22;551;48.524;9.056;2023-04-04T00:59:25;1.80;1.00
506;DHT22;551;48.524;9.056;2023-04-04T01:01:52;1.80;1.00
506;DHT22;551;48.524;9.056;2023-04-04T01:04:17;1.80;1.00
506;DHT22;551;48.524;9.056;2023-04-04T01:06:43;1.80;1.00
506;DHT22;551;48.524;9.056;2023-04-04T01:09:10;1.80;1.00
506;DHT22;551;48.524;9.056;2023-04-04T01:11:36;1.70;1.00
506;DHT22;551;48.524;9.056;2023-04-04T01:14:02;1.70;1.00
506;DHT22;551;48.524;9.056;2023-04-04T01:16:27;1.70;1.00
506;DHT22;551;48.524;9.056;2023-04-04T01:18:53;1.60;1.00
506;DHT22;551;48.524;9.056;2023-04-04T01:21:22;1.60;1.00
506;DHT22;551;48.524;9.056;2023-04-04T01:24:01;1.60;1.00
506;DHT22;551;48.524;9.056;2023-04-04T01:26:28;1.50;1.00
506;DHT22;551;48.524;9.056;2023-04-04T01:28:54;1.50;1.00
506;DHT22;551;48.524;9.056;2023-04-04T01:31:25;1.50;1.00
506;DHT22;551;48.524;9.056;2023-04-04T01:33:57;1.50;1.00
506;DHT22;551;48.524;9.056;2023-04-04T01:36:44;1.50;1.00
506;DHT22;551;48.524;9.056;2023-04-04T01:39:26;1.50;1.00
506;DHT22;551;48.524;9.056;2023-04-04T01:41:55;1.40;1.00
506;DHT22;551;48.524;9.056;2023-04-04T01:44:21;1.40;1.00
506;DHT22;551;48.524;9.056;2023-04-04T01:46:52;1.40;1.00
506;DHT22;551;48.524;9.056;2023-04-04T01:49:18;1.40;1.00
506;DHT22;551;48.524;9.056;2023-04-04T01:51:43;1.40;1.00
506;DHT22;551;48.524;9.056;2023-04-04T01:54:09;1.40;1.00
506;DHT22;551;48.524;9.056;2023-04-04T01:56:35;1.40;1.00
506;DHT22;551;48.524;9.056;2023-04-04T01:59:00;1.30;1.00
506;DHT22;551;48.524;9.056;2023-04-04T02:01:26;1.30;1.00
506;DHT22;551;48.524;9.056;2023-04-04T02:03:51;1.20;1.00
506;DHT22;551;48.524;9.056;2023-04-04T02:06:17;1.20;1.00
506;DHT22;551;48.524;9.056;2023-04-04T02:08:42;1.20;1.00
506;DHT22;551;48.524;9.056;2023-04-04T02:11:07;1.20;1.00
506;DHT22;551;48.524;9.056;2023-04-04T02:13:33;1.20;1.00
506;DHT22;551;48.524;9.056;2023-04-04T02:15:58;1.20;1.00
506;DHT22;551;48.524;9.056;2023-04-04T02:18:24;1.10;1.00
506;DHT22;551;48.524;9.056;2023-04-04T02:20:56;1.10;1.00
506;DHT22;551;48.524;9.056;2023-04-04T02:23:22;1.10;1.00
506;DHT22;551;48.524;9.056;2023-04-04T02:25:49;1.10;1.00
506;DHT22;551;48.524;9.056;2023-04-04T02:28:15;1.10;1.00
506;DHT22;551;48.524;9.056;2023-04-04T02:30:41;1.10;1.00
506;DHT22;551;48.524;9.056;2023-04-04T02:33:06;1.10;1.00
506;DHT22;551;48.524;9.056;2023-04-04T02:35:32;1.10;1.00
506;DHT22;551;48.524;9.056;2023-04-04T02:37:58;1.10;1.00
506;DHT22;551;48.524;9.056;2023-04-04T02:40:23;1.10;1.00
506;DHT22;551;48.524;9.056;2023-04-04T02:42:49;1.10;1.00
506;DHT22;551;48.524;9.056;2023-04-04T02:45:14;1.10;1.00
506;DHT22;551;48.524;9.056;2023-04-04T02:47:41;1.00;1.00
506;DHT22;551;48.524;9.056;2023-04-04T02:50:08;1.10;1.00
506;DHT22;551;48.524;9.056;2023-04-04T02:52:33;1.10;1.00
506;DHT22;551;48.524;9.056;2023-04-04T02:54:59;1.10;1.00
506;DHT22;551;48.524;9.056;2023-04-04T02:57:24;1.10;1.00
506;DHT22;551;48.524;9.056;2023-04-04T02:59:50;1.10;1.00
506;DHT22;551;48.524;9.056;2023-04-04T03:02:16;1.10;1.00
506;DHT22;551;48.524;9.056;2023-04-04T03:04:41;1.10;1.00
506;DHT22;551;48.524;9.056;2023-04-04T03:07:07;1.10;1.00
506;DHT22;551;48.524;9.056;2023-04-04T03:09:32;1.10;1.00
506;DHT22;551;48.524;9.056;2023-04-04T03:11:58;1.10;1.00
506;DHT22;551;48.524;9.056;2023-04-04T03:14:24;1.00;1.00
506;DHT22;551;48.524;9.056;2023-04-04T03:16:51;1.00;1.00
506;DHT22;551;48.524;9.056;2023-04-04T03:19:17;1.00;1.00
506;DHT22;551;48.524;9.056;2023-04-04T03:21:43;1.00;1.00
506;DHT22;551;48.524;9.056;2023-04-04T03:24:09;1.00;1.00
506;DHT22;551;48.524;9.056;2023-04-04T03:26:34;1.00;1.00
506;DHT22;551;48.524;9.056;2023-04-04T03:29:00;1.10;1.00
506;DHT22;551;48.524;9.056;2023-04-04T03:31:28;1.10;1.00
506;DHT22;551;48.524;9.056;2023-04-04T03:33:54;1.10;1.00
506;DHT22;551;48.524;9.056;2023-04-04T03:36:19;1.00;1.00
506;DHT22;551;48.524;9.056;2023-04-04T03:38:45;1.00;1.00
506;DHT22;551;48.524;9.056;2023-04-04T03:41:10;1.10;1.00
506;DHT22;551;48.524;9.056;2023-04-04T03:43:36;1.10;1.00
506;DHT22;551;48.524;9.056;2023-04-04T03:46:03;1.20;1.00
506;DHT22;551;48.524;9.056;2023-04-04T03:48:29;1.20;1.00
506;DHT22;551;48.524;9.056;2023-04-04T03:50:56;1.20;1.00
506;DHT22;551;48.524;9.056;2023-04-04T03:53:25;1.10;1.00
506;DHT22;551;48.524;9.056;2023-04-04T03:55:51;1.10;1.00
506;DHT22;551;48.524;9.056;2023-04-04T03:58:17;1.00;1.00
506;DHT22;551;48.524;9.056;2023-04-04T04:00:43;1.00;1.00
506;DHT22;551;48.524;9.056;2023-04-04T04:03:09;1.00;1.00
506;DHT22;551;48.524;9.056;2023-04-04T04:05:34;1.00;1.00
506;DHT22;551;48.524;9.056;2023-04-04T04:08:00;0.90;1.00
506;DHT22;551;48.524;9.056;2023-04-04T04:10:26;0.90;1.00
506;DHT22;551;48.524;9.056;2023-04-04T04:12:52;0.90;1.00
506;DHT22;551;48.524;9.056;2023-04-04T04:15:18;0.80;1.00
506;DHT22;551;48.524;9.056;2023-04-04T04:17:43;0.80;1.00
506;DHT22;551;48.524;9.056;2023-04-04T04:20:09;0.80;1.00
506;DHT22;551;48.524;9.056;2023-04-04T04:22:35;0.80;1.00
506;DHT22;551;48.524;9.056;2023-04-04T04:25:02;0.80;1.00
506;DHT22;551;48.524;9.056;2023-04-04T04:27:28;0.80;1.00
506;DHT22;551;48.524;9.056;2023-04-04T04:29:54;0.70;1.00
506;DHT22;551;48.524;9.056;2023-04-04T04:32:20;0.70;1.00
506;DHT22;551;48.524;9.056;2023-04-04T04:34:46;0.70;1.00
506;DHT22;551;48.524;9.056;2023-04-04T04:37:12;0.70;1.00
506;DHT22;551;48.524;9.056;2023-04-04T04:39:38;0.70;1.00
506;DHT22;551;48.524;9.056;2023-04-04T04:42:03;0.80;1.00
506;DHT22;551;48.524;9.056;2023-04-04T04:44:29;0.80;1.00
506;DHT22;551;48.524;9.056;2023-04-04T04:46:54;0.90;1.00
506;DHT22;551;48.524;9.056;2023-04-04T04:49:21;0.80;1.00
506;DHT22;551;48.524;9.056;2023-04-04T04:51:46;0.80;1.00
506;DHT22;551;48.524;9.056;2023-04-04T04:54:13;0.70;1.00
506;DHT22;551;48.524;9.056;2023-04-04T04:56:38;0.80;1.00
506;DHT22;551;48.524;9.056;2023-04-04T04:59:04;0.80;1.00
506;DHT22;551;48.524;9.056;2023-04-04T05:01:31;0.70;1.00
506;DHT22;551;48.524;9.056;2023-04-04T05:03:57;0.70;1.00
506;DHT22;551;48.524;9.056;2023-04-04T05:06:23;0.70;1.00
506;DHT22;551;48.524;9.056;2023-04-04T05:08:48;0.70;1.00
506;DHT22;551;48.524;9.056;2023-04-04T05:11:14;0.80;1.00
506;DHT22;551;48.524;9.056;2023-04-04T05:13:39;0.80;1.00
506;DHT22;551;48.524;9.056;2023-04-04T05:16:05;0.70;1.00
506;DHT22;551;48.524;9.056;2023-04-04T05:18:30;0.80;1.00
506;DHT22;551;48.524;9.056;2023-04-04T05:20:56;0.80;1.00
506;DHT22;551;48.524;9.056;2023-04-04T05:23:22;0.80;1.00
506;DHT22;551;48.524;9.056;2023-04-04T05:25:48;0.80;1.00
506;DHT22;551;48.524;9.056;2023-04-04T05:28:15;0.90;1.00
506;DHT22;551;48.524;9.056;2023-04-04T05:30:40;0.90;1.00
506;DHT22;551;48.524;9.056;2023-04-04T05:33:06;1.00;1.00
506;DHT22;551;48.524;9.056;2023-04-04T05:35:31;1.00;1.00
506;DHT22;551;48.524;9.056;2023-04-04T05:37:57;1.10;1.00
506;DHT22;551;48.524;9.056;2023-04-04T05:40:22;1.20;1.00
506;DHT22;551;48.524;9.056;2023-04-04T05:42:57;1.30;1.00
506;DHT22;551;48.524;9.056;2023-04-04T05:45:24;1.50;1.00
506;DHT22;551;48.524;9.056;2023-04-04T05:47:50;1.60;1.00
506;DHT22;551;48.524;9.056;2023-04-04T05:50:15;1.80;1.00
506;DHT22;551;48.524;9.056;2023-04-04T05:52:41;2.10;1.00
506;DHT22;551;48.524;9.056;2023-04-04T05:55:06;2.40;1.00
506;DHT22;551;48.524;9.056;2023-04-04T05:57:32;2.70;1.00
506;DHT22;551;48.524;9.056;2023-04-04T05:59:58;3.30;1.00
506;DHT22;551;48.524;9.056;2023-04-04T06:02:23;3.50;1.00
506;DHT22;551;48.524;9.056;2023-04-04T06:04:49;4.20;1.00
506;DHT22;551;48.524;9.056;2023-04-04T06:07:14;5.00;1.00
506;DHT22;551;48.524;9.056;2023-04-04T06:09:41;5.40;1.00
506;DHT22;551;48.524;9.056;2023-04-04T06:12:06;5.90;1.00
506;DHT22;551;48.524;9.056;2023-04-04T06:14:34;6.70;1.00
506;DHT22;551;48.524;9.056;2023-04-04T06:16:59;6.90;1.00
506;DHT22;551;48.524;9.056;2023-04-04T06:19:25;6.60;1.00
506;DHT22;551;48.524;9.056;2023-04-04T06:21:51;6.20;1.00
506;DHT22;551;48.524;9.056;2023-04-04T06:24:16;5.80;1.00
506;DHT22;551;48.524;9.056;2023-04-04T06:26:42;6.00;1.00
506;DHT22;551;48.524;9.056;2023-04-04T06:29:08;6.00;1.00
506;DHT22;551;48.524;9.056;2023-04-04T06:31:33;6.30;1.00
506;DHT22;551;48.524;9.056;2023-04-04T06:33:59;6.80;1.00
506;DHT22;551;48.524;9.056;2023-04-04T06:36:25;8.00;1.00
506;DHT22;551;48.524;9.056;2023-04-04T06:38:51;9.70;1.00
506;DHT22;551;48.524;9.056;2023-04-04T06:41:16;10.90;1.00
506;DHT22;551;48.524;9.056;2023-04-04T06:46:11;13.40;1.00
506;DHT22;551;48.524;9.056;2023-04-04T06:48:39;13.90;1.00
506;DHT22;551;48.524;9.056;2023-04-04T06:51:06;13.90;1.00
506;DHT22;551;48.524;9.056;2023-04-04T06:53:32;13.70;1.00
506;DHT22;551;48.524;9.056;2023-04-04T06:55:59;13.40;1.00
506;DHT22;551;48.524;9.056;2023-04-04T06:58:24;12.20;1.00
506;DHT22;551;48.524;9.056;2023-04-04T07:00:50;11.50;1.00
506;DHT22;551;48.524;9.056;2023-04-04T07:03:15;10.80;1.00
506;DHT22;551;48.524;9.056;2023-04-04T07:05:41;10.60;1.00
506;DHT22;551;48.524;9.056;2023-04-04T07:08:08;11.00;1.00
506;DHT22;551;48.524;9.056;2023-04-04T07:10:33;11.90;1.00
506;DHT22;551;48.524;9.056;2023-04-04T07:12:59;12.90;1.00
506;DHT22;551;48.524;9.056;2023-04-04T07:15:25;14.10;1.00
506;DHT22;551;48.524;9.056;2023-04-04T07:17:51;15.30;1.00
506;DHT22;551;48.524;9.056;2023-04-04T07:20:16;16.30;1.00
506;DHT22;551;48.524;9.056;2023-04-04T07:22:42;17.50;1.00
506;DHT22;551;48.524;9.056;2023-04-04T07:25:08;19.10;1.00
506;DHT22;551;48.524;9.056;2023-04-04T07:27:35;20.40;1.00
506;DHT22;551;48.524;9.056;2023-04-04T07:30:01;20.90;1.00
506;DHT22;551;48.524;9.056;2023-04-04T07:32:27;20.60;1.00
506;DHT22;551;48.524;9.056;2023-04-04T07:34:53;21.60;1.00
506;DHT22;551;48.524;9.056;2023-04-04T07:37:19;21.50;1.00
506;DHT22;551;48.524;9.056;2023-04-04T07:39:46;21.60;1.00
506;DHT22;551;48.524;9.056;2023-04-04T07:42:17;22.50;1.00
506;DHT22;551;48.524;9.056;2023-04-04T07:44:48;22.30;1.00
506;DHT22;551;48.524;9.056;2023-04-04T07:47:13;21.30;1.00
506;DHT22;551;48.524;9.056;2023-04-04T07:49:39;21.10;1.00
506;DHT22;551;48.524;9.056;2023-04-04T07:52:05;20.90;1.00
506;DHT22;551;48.524;9.056;2023-04-04T07:54:30;21.10;1.00
506;DHT22;551;48.524;9.056;2023-04-04T07:56:56;21.20;1.00
506;DHT22;551;48.524;9.056;2023-04-04T07:59:21;21.20;1.00
506;DHT22;551;48.524;9.056;2023-04-04T08:01:47;22.30;1.00
506;DHT22;551;48.524;9.056;2023-04-04T08:04:12;23.20;1.00
506;DHT22;551;48.524;9.056;2023-04-04T08:06:38;23.70;1.00
506;DHT22;551;48.524;9.056;2023-04-04T08:09:03;23.40;1.00
506;DHT22;551;48.524;9.056;2023-04-04T08:11:29;23.50;1.00
506;DHT22;551;48.524;9.056;2023-04-04T08:13:54;23.80;1.00
506;DHT22;551;48.524;9.056;2023-04-04T08:16:20;23.50;1.00
506;DHT22;551;48.524;9.056;2023-04-04T08:18:46;22.80;1.00
506;DHT22;551;48.524;9.056;2023-04-04T08:21:11;22.40;1.00
506;DHT22;551;48.524;9.056;2023-04-04T08:23:37;23.00;1.00
506;DHT22;551;48.524;9.056;2023-04-04T08:26:03;23.90;1.00
506;DHT22;551;48.524;9.056;2023-04-04T08:28:28;24.10;1.00
506;DHT22;551;48.524;9.056;2023-04-04T08:30:54;24.50;1.00
506;DHT22;551;48.524;9.056;2023-04-04T08:33:21;24.60;1.00
506;DHT22;551;48.524;9.056;2023-04-04T08:35:49;24.30;1.00
506;DHT22;551;48.524;9.056;2023-04-04T08:38:14;23.90;1.00
506;DHT22;551;48.524;9.056;2023-04-04T08:40:40;23.50;1.00
506;DHT22;551;48.524;9.056;2023-04-04T08:43:05;23.80;1.00
506;DHT22;551;48.524;9.056;2023-04-04T08:45:32;24.10;1.00
506;DHT22;551;48.524;9.056;2023-04-04T08:48:00;23.90;1.00
506;DHT22;551;48.524;9.056;2023-04-04T08:50:28;24.20;1.00
506;DHT22;551;48.524;9.056;2023-04-04T08:52:55;24.90;1.00
506;DHT22;551;48.524;9.056;2023-04-04T08:55:21;25.00;1.00
506;DHT22;551;48.524;9.056;2023-04-04T08:57:46;24.50;1.00
506;DHT22;551;48.524;9.056;2023-04-04T09:00:13;24.10;1.00
506;DHT22;551;48.524;9.056;2023-04-04T09:02:45;24.70;1.00
506;DHT22;551;48.524;9.056;2023-04-04T09:05:14;25.10;1.00
506;DHT22;551;48.524;9.056;2023-04-04T09:07:41;25.30;1.00
506;DHT22;551;48.524;9.056;2023-04-04T09:10:09;26.10;1.00
506;DHT22;551;48.524;9.056;2023-04-04T09:12:38;25.10;1.00
506;DHT22;551;48.524;9.056;2023-04-04T09:15:06;24.70;1.00
506;DHT22;551;48.524;9.056;2023-04-04T09:17:31;24.70;1.00
506;DHT22;551;48.524;9.056;2023-04-04T09:20:01;25.10;1.00
506;DHT22;551;48.524;9.056;2023-04-04T09:22:29;24.70;1.00
506;DHT22;551;48.524;9.056;2023-04-04T09:24:55;24.50;1.00
506;DHT22;551;48.524;9.056;2023-04-04T09:27:21;24.30;1.00
506;DHT22;551;48.524;9.056;2023-04-04T09:29:47;23.90;1.00
506;DHT22;551;48.524;9.056;2023-04-04T09:32:15;24.50;1.00
506;DHT22;551;48.524;9.056;2023-04-04T09:34:42;24.80;1.00
506;DHT22;551;48.524;9.056;2023-04-04T09:37:09;25.10;1.00
506;DHT22;551;48.524;9.056;2023-04-04T09:39:38;25.50;1.00
506;DHT22;551;48.524;9.056;2023-04-04T09:42:05;24.90;1.00
506;DHT22;551;48.524;9.056;2023-04-04T09:44:32;24.60;1.00
506;DHT22;551;48.524;9.056;2023-04-04T09:47:25;24.30;1.00
506;DHT22;551;48.524;9.056;2023-04-04T09:49:52;24.50;1.00
506;DHT22;551;48.524;9.056;2023-04-04T09:52:18;24.10;1.00
506;DHT22;551;48.524;9.056;2023-04-04T09:55:03;23.20;1.00
506;DHT22;551;48.524;9.056;2023-04-04T09:57:33;23.30;1.00
506;DHT22;551;48.524;9.056;2023-04-04T10:00:00;23.80;1.00
506;DHT22;551;48.524;9.056;2023-04-04T10:02:29;23.10;1.00
506;DHT22;551;48.524;9.056;2023-04-04T10:04:55;22.90;1.00
506;DHT22;551;48.524;9.056;2023-04-04T10:07:24;24.00;1.00
506;DHT22;551;48.524;9.056;2023-04-04T10:09:51;23.90;1.00
506;DHT22;551;48.524;9.056;2023-04-04T10:12:23;23.50;1.00
506;DHT22;551;48.524;9.056;2023-04-04T10:14:55;23.00;1.00
506;DHT22;551;48.524;9.056;2023-04-04T10:17:21;22.00;1.00
506;DHT22;551;48.524;9.056;2023-04-04T10:19:47;21.30;1.00
506;DHT22;551;48.524;9.056;2023-04-04T10:22:13;21.60;1.00
506;DHT22;551;48.524;9.056;2023-04-04T10:24:40;22.40;1.00
506;DHT22;551;48.524;9.056;2023-04-04T10:27:06;22.80;1.00
506;DHT22;551;48.524;9.056;2023-04-04T10:29:31;22.90;1.00
506;DHT22;551;48.524;9.056;2023-04-04T10:32:04;23.50;1.00
506;DHT22;551;48.524;9.056;2023-04-04T10:34:48;22.80;1.00
506;DHT22;551;48.524;9.056;2023-04-04T10:37:21;23.00;1.00
506;DHT22;551;48.524;9.056;2023-04-04T10:40:06;23.40;1.00
506;DHT22;551;48.524;9.056;2023-04-04T10:42:39;23.80;1.00
506;DHT22;551;48.524;9.056;2023-04-04T10:45:07;24.00;1.00
506;DHT22;551;48.524;9.056;2023-04-04T10:47:34;23.60;1.00
506;DHT22;551;48.524;9.056;2023-04-04T10:50:02;23.70;1.00
506;DHT22;551;48.524;9.056;2023-04-04T10:52:30;23.50;1.00
506;DHT22;551;48.524;9.056;2023-04-04T10:54:58;23.50;1.00
506;DHT22;551;48.524;9.056;2023-04-04T10:57:24;22.80;1.00
506;DHT22;551;48.524;9.056;2023-04-04T11:00:01;22.80;1.00
506;DHT22;551;48.524;9.056;2023-04-04T11:02:54;23.30;1.00
506;DHT22;551;48.524;9.056;2023-04-04T11:05:30;24.00;1.00
506;DHT22;551;48.524;9.056;2023-04-04T11:08:03;23.90;1.00
506;DHT22;551;48.524;9.056;2023-04-04T11:10:30;24.30;1.00
506;DHT22;551;48.524;9.056;2023-04-04T11:12:57;24.70;1.00
506;DHT22;551;48.524;9.056;2023-04-04T11:15:54;24.80;1.00
506;DHT22;551;48.524;9.056;2023-04-04T11:28:56;23.50;1.00
506;DHT22;551;48.524;9.056;2023-04-04T11:31:24;23.30;1.00
506;DHT22;551;48.524;9.056;2023-04-04T11:34:09;23.60;1.00
506;DHT22;551;48.524;9.056;2023-04-04T11:39:12;23.50;1.00
506;DHT22;551;48.524;9.056;2023-04-04T11:44:29;23.90;1.00
506;DHT22;551;48.524;9.056;2023-04-04T11:49:36;24.10;1.00
506;DHT22;551;48.524;9.056;2023-04-04T11:52:06;24.10;1.00
506;DHT22;551;48.524;9.056;2023-04-04T11:54:36;24.30;1.00
506;DHT22;551;48.524;9.056;2023-04-04T11:57:02;23.80;1.00
506;DHT22;551;48.524;9.056;2023-04-04T11:59:29;23.70;1.00
506;DHT22;551;48.524;9.056;2023-04-04T12:01:55;23.40;1.00
506;DHT22;551;48.524;9.056;2023-04-04T12:04:21;23.10;1.00
506;DHT22;551;48.524;9.056;2023-04-04T12:06:52;22.80;1.00
506;DHT22;551;48.524;9.056;2023-04-04T12:09:19;22.80;1.00
506;DHT22;551;48.524;9.056;2023-04-04T12:11:46;23.10;1.00
506;DHT22;551;48.524;9.056;2023-04-04T12:14:20;23.70;1.00
506;DHT22;551;48.524;9.056;2023-04-04T12:16:53;23.50;1.00
506;DHT22;551;48.524;9.056;2023-04-04T12:19:23;23.60;1.00
506;DHT22;551;48.524;9.056;2023-04-04T12:21:49;23.60;1.00
506;DHT22;551;48.524;9.056;2023-04-04T12:24:16;23.30;1.00
506;DHT22;551;48.524;9.056;2023-04-04T12:26:44;23.00;1.00
506;DHT22;551;48.524;9.056;2023-04-04T12:29:12;23.10;1.00
506;DHT22;551;48.524;9.056;2023-04-04T12:31:40;22.70;1.00
506;DHT22;551;48.524;9.056;2023-04-04T12:34:14;23.40;1.00
506;DHT22;551;48.524;9.056;2023-04-04T12:36:40;23.60;1.00
506;DHT22;551;48.524;9.056;2023-04-04T12:39:07;23.60;1.00
506;DHT22;551;48.524;9.056;2023-04-04T12:41:34;23.80;1.00
506;DHT22;551;48.524;9.056;2023-04-04T12:44:01;24.20;1.00
506;DHT22;551;48.524;9.056;2023-04-04T12:46:33;24.60;1.00
506;DHT22;551;48.524;9.056;2023-04-04T12:49:02;24.20;1.00
506;DHT22;551;48.524;9.056;2023-04-04T12:51:31;23.40;1.00
506;DHT22;551;48.524;9.056;2023-04-04T12:53:58;23.40;1.00
506;DHT22;551;48.524;9.056;2023-04-04T12:56:27;23.30;1.00
506;DHT22;551;48.524;9.056;2023-04-04T12:58:59;23.50;1.00
506;DHT22;551;48.524;9.056;2023-04-04T13:01:26;23.60;1.00
506;DHT22;551;48.524;9.056;2023-04-04T13:03:51;23.30;1.00
506;DHT22;551;48.524;9.056;2023-04-04T13:06:17;23.00;1.00
506;DHT22;551;48.524;9.056;2023-04-04T13:08:53;23.10;1.00
506;DHT22;551;48.524;9.056;2023-04-04T13:11:19;23.20;1.00
506;DHT22;551;48.524;9.056;2023-04-04T13:13:45;23.30;1.00
506;DHT22;551;48.524;9.056;2023-04-04T13:16:12;22.50;1.00
506;DHT22;551;48.524;9.056;2023-04-04T13:18:40;22.30;1.00
506;DHT22;551;48.524;9.056;2023-04-04T13:21:11;22.10;1.00
506;DHT22;551;48.524;9.056;2023-04-04T13:23:38;21.70;1.00
506;DHT22;551;48.524;9.056;2023-04-04T13:26:08;21.40;1.00
506;DHT22;551;48.524;9.056;2023-04-04T13:28:34;21.30;1.00
506;DHT22;551;48.524;9.056;2023-04-04T13:31:04;21.20;1.00
506;DHT22;551;48.524;9.056;2023-04-04T13:33:31;21.00;1.00
506;DHT22;551;48.524;9.056;2023-04-04T13:35:57;20.80;1.00
506;DHT22;551;48.524;9.056;2023-04-04T13:38:23;20.00;1.00
506;DHT22;551;48.524;9.056;2023-04-04T13:40:48;18.90;1.00
506;DHT22;551;48.524;9.056;2023-04-04T13:43:14;18.00;1.00
506;DHT22;551;48.524;9.056;2023-04-04T13:45:40;16.70;1.00
506;DHT22;551;48.524;9.056;2023-04-04T13:48:10;16.10;1.00
506;DHT22;551;48.524;9.056;2023-04-04T13:50:36;15.10;1.00
506;DHT22;551;48.524;9.056;2023-04-04T13:53:03;14.60;1.00
506;DHT22;551;48.524;9.056;2023-04-04T13:55:28;14.00;1.00
506;DHT22;551;48.524;9.056;2023-04-04T13:57:54;13.50;1.00
506;DHT22;551;48.524;9.056;2023-04-04T14:00:20;13.20;1.00
506;DHT22;551;48.524;9.056;2023-04-04T14:02:46;13.00;1.00
506;DHT22;551;48.524;9.056;2023-04-04T14:05:14;12.70;1.00
506;DHT22;551;48.524;9.056;2023-04-04T14:07:39;12.60;1.00
506;DHT22;551;48.524;9.056;2023-04-04T14:10:05;12.60;1.00
506;DHT22;551;48.524;9.056;2023-04-04T14:12:31;12.60;1.00
506;DHT22;551;48.524;9.056;2023-04-04T14:14:57;12.50;1.00
506;DHT22;551;48.524;9.056;2023-04-04T14:17:22;12.50;1.00
506;DHT22;551;48.524;9.056;2023-04-04T14:19:48;12.40;1.00
506;DHT22;551;48.524;9.056;2023-04-04T14:22:13;12.40;1.00
506;DHT22;551;48.524;9.056;2023-04-04T14:24:39;12.30;1.00
506;DHT22;551;48.524;9.056;2023-04-04T14:27:04;12.10;1.00
506;DHT22;551;48.524;9.056;2023-04-04T14:29:30;12.20;1.00
506;DHT22;551;48.524;9.056;2023-04-04T14:31:55;12.10;1.00
506;DHT22;551;48.524;9.056;2023-04-04T14:34:21;12.10;1.00
506;DHT22;551;48.524;9.056;2023-04-04T14:36:47;12.20;1.00
506;DHT22;551;48.524;9.056;2023-04-04T14:39:13;12.20;1.00
506;DHT22;551;48.524;9.056;2023-04-04T14:41:38;12.00;1.00
506;DHT22;551;48.524;9.056;2023-04-04T14:44:04;11.80;1.00
506;DHT22;551;48.524;9.056;2023-04-04T14:46:30;11.80;1.00
506;DHT22;551;48.524;9.056;2023-04-04T14:48:58;11.80;1.00
506;DHT22;551;48.524;9.056;2023-04-04T14:51:23;11.70;1.00
506;DHT22;551;48.524;9.056;2023-04-04T14:53:49;11.60;1.00
506;DHT22;551;48.524;9.056;2023-04-04T14:56:16;11.60;1.00
506;DHT22;551;48.524;9.056;2023-04-04T14:58:42;11.70;1.00
506;DHT22;551;48.524;9.056;2023-04-04T15:01:07;11.60;1.00
506;DHT22;551;48.524;9.056;2023-04-04T15:03:33;11.60;1.00
506;DHT22;551;48.524;9.056;2023-04-04T15:05:59;11.40;1.00
506;DHT22;551;48.524;9.056;2023-04-04T15:08:24;11.50;1.00
506;DHT22;551;48.524;9.056;2023-04-04T15:10:50;11.30;1.00
506;DHT22;551;48.524;9.056;2023-04-04T15:13:16;11.20;1.00
506;DHT22;551;48.524;9.056;2023-04-04T15:15:41;11.30;1.00
506;DHT22;551;48.524;9.056;2023-04-04T15:18:07;11.30;1.00
506;DHT22;551;48.524;9.056;2023-04-04T15:20:32;11.30;1.00
506;DHT22;551;48.524;9.056;2023-04-04T15:22:58;11.20;1.00
506;DHT22;551;48.524;9.056;2023-04-04T15:25:23;11.30;1.00
506;DHT22;551;48.524;9.056;2023-04-04T15:27:49;11.20;1.00
506;DHT22;551;48.524;9.056;2023-04-04T15:30:14;11.10;1.00
506;DHT22;551;48.524;9.056;2023-04-04T15:32:40;11.20;1.00
506;DHT22;551;48.524;9.056;2023-04-04T15:35:15;11.30;1.00
506;DHT22;551;48.524;9.056;2023-04-04T15:37:41;11.30;1.00
506;DHT22;551;48.524;9.056;2023-04-04T15:40:07;11.20;1.00
506;DHT22;551;48.524;9.056;2023-04-04T15:42:32;11.30;1.00
506;DHT22;551;48.524;9.056;2023-04-04T15:44:58;11.20;1.00
506;DHT22;551;48.524;9.056;2023-04-04T15:47:23;11.10;1.00
506;DHT22;551;48.524;9.056;2023-04-04T15:49:49;11.00;1.00
506;DHT22;551;48.524;9.056;2023-04-04T15:52:14;10.90;1.00
506;DHT22;551;48.524;9.056;2023-04-04T15:54:40;10.90;1.00
506;DHT22;551;48.524;9.056;2023-04-04T15:57:06;11.00;1.00
506;DHT22;551;48.524;9.056;2023-04-04T15:59:31;11.00;1.00
506;DHT22;551;48.524;9.056;2023-04-04T16:01:57;10.90;1.00
506;DHT22;551;48.524;9.056;2023-04-04T16:04:25;10.90;1.00
506;DHT22;551;48.524;9.056;2023-04-04T16:06:51;11.00;1.00
506;DHT22;551;48.524;9.056;2023-04-04T16:09:16;10.90;1.00
506;DHT22;551;48.524;9.056;2023-04-04T16:11:42;10.90;1.00
506;DHT22;551;48.524;9.056;2023-04-04T16:14:07;10.70;1.00
506;DHT22;551;48.524;9.056;2023-04-04T16:16:35;10.60;1.00
506;DHT22;551;48.524;9.056;2023-04-04T16:19:00;10.60;1.00
506;DHT22;551;48.524;9.056;2023-04-04T16:21:26;10.50;1.00
506;DHT22;551;48.524;9.056;2023-04-04T16:23:52;10.50;1.00
506;DHT22;551;48.524;9.056;2023-04-04T16:26:17;10.30;1.00
506;DHT22;551;48.524;9.056;2023-04-04T16:28:43;10.30;1.00
506;DHT22;551;48.524;9.056;2023-04-04T16:31:08;10.30;1.00
506;DHT22;551;48.524;9.056;2023-04-04T16:33:34;10.20;1.00
506;DHT22;551;48.524;9.056;2023-04-04T16:35:59;10.10;1.00
506;DHT22;551;48.524;9.056;2023-04-04T16:38:25;9.90;1.00
506;DHT22;551;48.524;9.056;2023-04-04T16:40:50;9.90;1.00
506;DHT22;551;48.524;9.056;2023-04-04T16:43:16;9.80;1.00
506;DHT22;551;48.524;9.056;2023-04-04T16:45:41;9.80;1.00
506;DHT22;551;48.524;9.056;2023-04-04T16:48:07;9.90;1.00
506;DHT22;551;48.524;9.056;2023-04-04T16:50:32;9.90;1.00
506;DHT22;551;48.524;9.056;2023-04-04T16:52:58;9.80;1.00
506;DHT22;551;48.524;9.056;2023-04-04T16:55:24;9.60;1.00
506;DHT22;551;48.524;9.056;2023-04-04T16:57:52;9.70;1.00
506;DHT22;551;48.524;9.056;2023-04-04T17:00:18;9.60;1.00
506;DHT22;551;48.524;9.056;2023-04-04T17:02:44;9.60;1.00
506;DHT22;551;48.524;9.056;2023-04-04T17:05:13;9.50;1.00
506;DHT22;551;48.524;9.056;2023-04-04T17:07:40;9.40;1.00
506;DHT22;551;48.524;9.056;2023-04-04T17:10:07;9.30;1.00
506;DHT22;551;48.524;9.056;2023-04-04T17:12:32;9.40;1.00
506;DHT22;551;48.524;9.056;2023-04-04T17:14:58;9.30;1.00
506;DHT22;551;48.524;9.056;2023-04-04T17:17:24;9.30;1.00
506;DHT22;551;48.524;9.056;2023-04-04T17:19:49;9.20;1.00